sensor_id;sensor_type;location;lat;lon;timestamp;temperature;humidity
69418;DHT22;56610;48.872;2.400;2023-06-14T00:01:52;28.30;70.90
69418;DHT22;56610;48.872;2.400;2023-06-14T00:04:17;28.30;71.60
69418;DHT22;56610;48.872;2.400;2023-06-14T00:06:44;28.40;71.60
69418;DHT22;56610;48.872;2.400;2023-06-14T00:09:16;28.20;71.50
69418;DHT22;56610;48.872;2.400;2023-06-14T00:11:43;28.10;72.10
69418;DHT22;56610;48.872;2.400;2023-06-14T00:14:09;28.10;72.10
69418;DHT22;56610;48.872;2.400;2023-06-14T00:16:35;27.90;72.60
69418;DHT22;56610;48.872;2.400;2023-06-14T00:19:02;27.90;72.60
69418;DHT22;56610;48.872;2.400;2023-06-14T00:21:31;27.80;72.70
69418;DHT22;56610;48.872;2.400;2023-06-14T00:24:01;27.90;73.10
69418;DHT22;56610;48.872;2.400;2023-06-14T00:26:26;27.90;73.30
69418;DHT22;56610;48.872;2.400;2023-06-14T00:28:53;28.00;73.40
69418;DHT22;56610;48.872;2.400;2023-06-14T00:31:18;28.00;73.30
69418;DHT22;56610;48.872;2.400;2023-06-14T00:33:44;27.90;73.30
69418;DHT22;56610;48.872;2.400;2023-06-14T00:36:10;28.00;73.40
69418;DHT22;56610;48.872;2.400;2023-06-14T00:38:36;28.00;73.20
69418;DHT22;56610;48.872;2.400;2023-06-14T00:41:01;27.80;73.50
69418;DHT22;56610;48.872;2.400;2023-06-14T00:43:27;27.60;73.90
69418;DHT22;56610;48.872;2.400;2023-06-14T00:45:52;27.50;74.50
69418;DHT22;56610;48.872;2.400;2023-06-14T00:48:18;27.60;74.40
69418;DHT22;56610;48.872;2.400;2023-06-14T00:50:45;27.60;74.60
69418;DHT22;56610;48.872;2.400;2023-06-14T00:53:14;27.80;74.60
69418;DHT22;56610;48.872;2.400;2023-06-14T00:55:43;27.70;74.70
69418;DHT22;56610;48.872;2.400;2023-06-14T00:58:09;27.80;75.00
69418;DHT22;56610;48.872;2.400;2023-06-14T01:00:36;27.80;74.90
69418;DHT22;56610;48.872;2.400;2023-06-14T01:03:01;27.80;75.10
69418;DHT22;56610;48.872;2.400;2023-06-14T01:05:28;27.80;75.10
69418;DHT22;56610;48.872;2.400;2023-06-14T01:13:12;27.80;75.30
69418;DHT22;56610;48.872;2.400;2023-06-14T01:15:42;27.80;75.20
69418;DHT22;56610;48.872;2.400;2023-06-14T01:18:08;27.60;75.80
69418;DHT22;56610;48.872;2.400;2023-06-14T01:20:42;27.50;75.60
69418;DHT22;56610;48.872;2.400;2023-06-14T01:23:11;27.60;75.90
69418;DHT22;56610;48.872;2.400;2023-06-14T01:25:39;27.60;75.80
69418;DHT22;56610;48.872;2.400;2023-06-14T01:28:07;27.60;76.20
69418;DHT22;56610;48.872;2.400;2023-06-14T01:30:38;27.60;76.10
69418;DHT22;56610;48.872;2.400;2023-06-14T01:33:04;27.60;76.10
69418;DHT22;56610;48.872;2.400;2023-06-14T01:35:31;27.50;76.60
69418;DHT22;56610;48.872;2.400;2023-06-14T01:37:57;27.50;76.70
69418;DHT22;56610;48.872;2.400;2023-06-14T01:40:23;27.50;76.50
69418;DHT22;56610;48.872;2.400;2023-06-14T01:42:50;27.40;76.70
69418;DHT22;56610;48.872;2.400;2023-06-14T01:45:17;27.60;76.70
69418;DHT22;56610;48.872;2.400;2023-06-14T01:47:44;27.50;76.70
69418;DHT22;56610;48.872;2.400;2023-06-14T01:50:10;27.50;76.80
69418;DHT22;56610;48.872;2.400;2023-06-14T01:52:39;27.50;76.90
69418;DHT22;56610;48.872;2.400;2023-06-14T01:55:05;27.40;77.20
69418;DHT22;56610;48.872;2.400;2023-06-14T01:57:31;27.30;77.00
69418;DHT22;56610;48.872;2.400;2023-06-14T01:59:57;27.20;76.80
69418;DHT22;56610;48.872;2.400;2023-06-14T02:02:22;27.00;77.30
69418;DHT22;56610;48.872;2.400;2023-06-14T02:04:48;27.00;77.60
69418;DHT22;56610;48.872;2.400;2023-06-14T02:07:14;26.90;77.70
69418;DHT22;56610;48.872;2.400;2023-06-14T02:09:40;26.90;77.70
69418;DHT22;56610;48.872;2.400;2023-06-14T02:12:07;26.90;78.00
69418;DHT22;56610;48.872;2.400;2023-06-14T02:14:32;26.80;77.90
69418;DHT22;56610;48.872;2.400;2023-06-14T02:16:59;26.70;78.10
69418;DHT22;56610;48.872;2.400;2023-06-14T02:19:26;26.80;78.30
69418;DHT22;56610;48.872;2.400;2023-06-14T02:21:52;26.80;77.90
69418;DHT22;56610;48.872;2.400;2023-06-14T02:24:17;26.60;78.00
69418;DHT22;56610;48.872;2.400;2023-06-14T02:26:43;26.60;78.40
69418;DHT22;56610;48.872;2.400;2023-06-14T02:29:09;26.60;78.30
69418;DHT22;56610;48.872;2.400;2023-06-14T02:31:38;26.50;78.00
69418;DHT22;56610;48.872;2.400;2023-06-14T02:34:03;26.40;78.10
69418;DHT22;56610;48.872;2.400;2023-06-14T02:36:29;26.10;78.70
69418;DHT22;56610;48.872;2.400;2023-06-14T02:38:56;25.90;78.50
69418;DHT22;56610;48.872;2.400;2023-06-14T02:41:24;25.80;78.90
69418;DHT22;56610;48.872;2.400;2023-06-14T02:43:49;25.70;79.40
69418;DHT22;56610;48.872;2.400;2023-06-14T02:46:15;25.70;79.20
69418;DHT22;56610;48.872;2.400;2023-06-14T02:48:41;25.80;79.40
69418;DHT22;56610;48.872;2.400;2023-06-14T02:51:06;25.70;79.50
69418;DHT22;56610;48.872;2.400;2023-06-14T02:53:33;25.70;80.00
69418;DHT22;56610;48.872;2.400;2023-06-14T02:55:59;25.60;80.00
69418;DHT22;56610;48.872;2.400;2023-06-14T02:58:24;25.50;79.90
69418;DHT22;56610;48.872;2.400;2023-06-14T03:00:50;25.50;80.10
69418;DHT22;56610;48.872;2.400;2023-06-14T03:03:18;25.40;80.80
69418;DHT22;56610;48.872;2.400;2023-06-14T03:05:47;25.40;81.00
69418;DHT22;56610;48.872;2.400;2023-06-14T03:08:15;25.30;81.10
69418;DHT22;56610;48.872;2.400;2023-06-14T03:10:48;25.10;81.50
69418;DHT22;56610;48.872;2.400;2023-06-14T03:13:15;24.90;81.90
69418;DHT22;56610;48.872;2.400;2023-06-14T03:15:42;24.90;82.10
69418;DHT22;56610;48.872;2.400;2023-06-14T03:18:08;24.80;82.40
69418;DHT22;56610;48.872;2.400;2023-06-14T03:20:38;24.50;82.90
69418;DHT22;56610;48.872;2.400;2023-06-14T03:23:05;24.50;83.20
69418;DHT22;56610;48.872;2.400;2023-06-14T03:25:31;24.60;83.40
69418;DHT22;56610;48.872;2.400;2023-06-14T03:27:58;24.50;83.60
69418;DHT22;56610;48.872;2.400;2023-06-14T03:30:24;24.50;83.60
69418;DHT22;56610;48.872;2.400;2023-06-14T03:32:50;24.50;83.80
69418;DHT22;56610;48.872;2.400;2023-06-14T03:35:18;24.60;84.10
69418;DHT22;56610;48.872;2.400;2023-06-14T03:37:44;24.60;84.10
69418;DHT22;56610;48.872;2.400;2023-06-14T03:40:12;24.50;84.60
69418;DHT22;56610;48.872;2.400;2023-06-14T03:42:38;24.50;84.90
69418;DHT22;56610;48.872;2.400;2023-06-14T03:45:05;24.50;84.80
69418;DHT22;56610;48.872;2.400;2023-06-14T03:47:31;24.40;85.10
69418;DHT22;56610;48.872;2.400;2023-06-14T03:49:57;24.30;85.30
69418;DHT22;56610;48.872;2.400;2023-06-14T03:52:23;24.30;85.40
69418;DHT22;56610;48.872;2.400;2023-06-14T03:54:49;24.30;85.70
69418;DHT22;56610;48.872;2.400;2023-06-14T03:57:15;24.30;85.60
69418;DHT22;56610;48.872;2.400;2023-06-14T03:59:40;24.30;85.80
69418;DHT22;56610;48.872;2.400;2023-06-14T04:02:07;24.30;86.10
69418;DHT22;56610;48.872;2.400;2023-06-14T04:04:33;24.30;85.70
69418;DHT22;56610;48.872;2.400;2023-06-14T04:07:00;24.40;84.80
69418;DHT22;56610;48.872;2.400;2023-06-14T04:09:29;24.30;84.50
69418;DHT22;56610;48.872;2.400;2023-06-14T04:11:55;24.30;84.60
69418;DHT22;56610;48.872;2.400;2023-06-14T04:14:21;24.30;84.40
69418;DHT22;56610;48.872;2.400;2023-06-14T04:16:48;24.40;84.20
69418;DHT22;56610;48.872;2.400;2023-06-14T04:19:15;24.50;83.90
69418;DHT22;56610;48.872;2.400;2023-06-14T04:21:40;24.50;83.90
69418;DHT22;56610;48.872;2.400;2023-06-14T04:24:06;24.50;83.90
69418;DHT22;56610;48.872;2.400;2023-06-14T04:26:32;24.60;83.90
69418;DHT22;56610;48.872;2.400;2023-06-14T04:28:59;24.60;84.20
69418;DHT22;56610;48.872;2.400;2023-06-14T04:31:29;24.60;84.40
69418;DHT22;56610;48.872;2.400;2023-06-14T04:33:55;24.60;84.30
69418;DHT22;56610;48.872;2.400;2023-06-14T04:36:21;24.60;84.80
69418;DHT22;56610;48.872;2.400;2023-06-14T04:38:47;24.50;84.70
69418;DHT22;56610;48.872;2.400;2023-06-14T04:41:14;24.50;84.80
69418;DHT22;56610;48.872;2.400;2023-06-14T04:43:41;24.50;85.20
69418;DHT22;56610;48.872;2.400;2023-06-14T04:46:08;24.60;84.90
69418;DHT22;56610;48.872;2.400;2023-06-14T04:48:35;24.70;85.20
69418;DHT22;56610;48.872;2.400;2023-06-14T04:51:01;24.70;85.20
69418;DHT22;56610;48.872;2.400;2023-06-14T04:53:29;24.70;85.20
69418;DHT22;56610;48.872;2.400;2023-06-14T04:55:54;24.80;85.60
69418;DHT22;56610;48.872;2.400;2023-06-14T04:58:20;24.70;86.60
69418;DHT22;56610;48.872;2.400;2023-06-14T05:00:46;24.80;86.20
69418;DHT22;56610;48.872;2.400;2023-06-14T05:03:11;24.60;85.60
69418;DHT22;56610;48.872;2.400;2023-06-14T05:05:39;24.70;86.10
69418;DHT22;56610;48.872;2.400;2023-06-14T05:08:05;24.70;86.20
69418;DHT22;56610;48.872;2.400;2023-06-14T05:10:31;24.60;86.60
69418;DHT22;56610;48.872;2.400;2023-06-14T05:12:56;24.60;86.50
69418;DHT22;56610;48.872;2.400;2023-06-14T05:15:22;24.60;86.20
69418;DHT22;56610;48.872;2.400;2023-06-14T05:17:50;24.50;86.80
69418;DHT22;56610;48.872;2.400;2023-06-14T05:20:24;24.50;86.80
69418;DHT22;56610;48.872;2.400;2023-06-14T05:22:53;24.60;87.40
69418;DHT22;56610;48.872;2.400;2023-06-14T05:25:22;24.70;86.90
69418;DHT22;56610;48.872;2.400;2023-06-14T05:27:48;24.70;86.80
69418;DHT22;56610;48.872;2.400;2023-06-14T05:30:15;24.80;86.00
69418;DHT22;56610;48.872;2.400;2023-06-14T05:32:41;24.80;86.30
69418;DHT22;56610;48.872;2.400;2023-06-14T05:35:07;24.80;86.80
69418;DHT22;56610;48.872;2.400;2023-06-14T05:37:33;24.80;87.00
69418;DHT22;56610;48.872;2.400;2023-06-14T05:39:59;24.90;87.30
69418;DHT22;56610;48.872;2.400;2023-06-14T05:42:24;24.90;86.90
69418;DHT22;56610;48.872;2.400;2023-06-14T05:44:50;24.80;86.80
69418;DHT22;56610;48.872;2.400;2023-06-14T05:47:15;24.90;86.60
69418;DHT22;56610;48.872;2.400;2023-06-14T05:49:41;25.00;85.30
69418;DHT22;56610;48.872;2.400;2023-06-14T05:52:07;25.10;85.40
69418;DHT22;56610;48.872;2.400;2023-06-14T05:54:33;25.20;84.30
69418;DHT22;56610;48.872;2.400;2023-06-14T05:56:59;25.40;84.10
69418;DHT22;56610;48.872;2.400;2023-06-14T05:59:27;25.40;83.40
69418;DHT22;56610;48.872;2.400;2023-06-14T06:01:52;25.50;84.00
69418;DHT22;56610;48.872;2.400;2023-06-14T06:04:18;25.70;83.20
69418;DHT22;56610;48.872;2.400;2023-06-14T06:06:44;25.90;82.40
69418;DHT22;56610;48.872;2.400;2023-06-14T06:09:10;25.90;82.00
69418;DHT22;56610;48.872;2.400;2023-06-14T06:11:36;26.00;81.70
69418;DHT22;56610;48.872;2.400;2023-06-14T06:14:01;26.10;83.00
69418;DHT22;56610;48.872;2.400;2023-06-14T06:16:27;26.30;82.10
69418;DHT22;56610;48.872;2.400;2023-06-14T06:18:52;26.30;81.00
69418;DHT22;56610;48.872;2.400;2023-06-14T06:21:18;26.30;81.10
69418;DHT22;56610;48.872;2.400;2023-06-14T06:23:43;26.30;81.50
69418;DHT22;56610;48.872;2.400;2023-06-14T06:26:09;26.30;80.50
69418;DHT22;56610;48.872;2.400;2023-06-14T06:28:34;26.30;80.30
69418;DHT22;56610;48.872;2.400;2023-06-14T06:31:00;26.40;80.30
69418;DHT22;56610;48.872;2.400;2023-06-14T06:33:26;26.60;79.60
69418;DHT22;56610;48.872;2.400;2023-06-14T06:35:52;26.50;79.80
69418;DHT22;56610;48.872;2.400;2023-06-14T06:38:17;26.60;79.60
69418;DHT22;56610;48.872;2.400;2023-06-14T06:40:44;26.60;79.10
69418;DHT22;56610;48.872;2.400;2023-06-14T06:43:10;26.80;79.20
69418;DHT22;56610;48.872;2.400;2023-06-14T06:45:39;27.00;78.80
69418;DHT22;56610;48.872;2.400;2023-06-14T06:48:05;27.20;78.30
69418;DHT22;56610;48.872;2.400;2023-06-14T06:50:31;27.20;78.30
69418;DHT22;56610;48.872;2.400;2023-06-14T06:52:57;27.30;76.30
69418;DHT22;56610;48.872;2.400;2023-06-14T06:55:22;27.30;76.50
69418;DHT22;56610;48.872;2.400;2023-06-14T06:57:48;27.30;77.10
69418;DHT22;56610;48.872;2.400;2023-06-14T07:00:15;27.40;77.20
69418;DHT22;56610;48.872;2.400;2023-06-14T07:02:41;27.50;77.70
69418;DHT22;56610;48.872;2.400;2023-06-14T07:05:07;27.50;76.80
69418;DHT22;56610;48.872;2.400;2023-06-14T07:07:34;27.60;77.20
69418;DHT22;56610;48.872;2.400;2023-06-14T07:10:00;27.80;77.30
69418;DHT22;56610;48.872;2.400;2023-06-14T07:12:25;27.90;76.60
69418;DHT22;56610;48.872;2.400;2023-06-14T07:14:51;28.00;78.10
69418;DHT22;56610;48.872;2.400;2023-06-14T07:17:17;28.20;76.80
69418;DHT22;56610;48.872;2.400;2023-06-14T07:19:42;28.10;75.10
69418;DHT22;56610;48.872;2.400;2023-06-14T07:22:08;28.10;76.70
69418;DHT22;56610;48.872;2.400;2023-06-14T07:24:33;28.20;75.80
69418;DHT22;56610;48.872;2.400;2023-06-14T07:27:01;28.20;75.60
69418;DHT22;56610;48.872;2.400;2023-06-14T07:29:28;28.10;76.70
69418;DHT22;56610;48.872;2.400;2023-06-14T07:31:54;28.10;76.20
69418;DHT22;56610;48.872;2.400;2023-06-14T07:34:19;28.10;76.10
69418;DHT22;56610;48.872;2.400;2023-06-14T07:36:45;28.00;75.30
69418;DHT22;56610;48.872;2.400;2023-06-14T07:39:11;28.00;76.00
69418;DHT22;56610;48.872;2.400;2023-06-14T07:41:37;28.20;75.70
69418;DHT22;56610;48.872;2.400;2023-06-14T07:44:02;28.20;74.50
69418;DHT22;56610;48.872;2.400;2023-06-14T07:46:28;28.20;74.20
69418;DHT22;56610;48.872;2.400;2023-06-14T07:48:54;28.30;74.30
69418;DHT22;56610;48.872;2.400;2023-06-14T07:51:19;28.40;73.90
69418;DHT22;56610;48.872;2.400;2023-06-14T07:53:45;28.40;73.30
69418;DHT22;56610;48.872;2.400;2023-06-14T07:56:11;28.50;72.90
69418;DHT22;56610;48.872;2.400;2023-06-14T07:58:37;28.40;74.60
69418;DHT22;56610;48.872;2.400;2023-06-14T08:01:02;28.50;74.20
69418;DHT22;56610;48.872;2.400;2023-06-14T08:03:32;28.70;73.70
69418;DHT22;56610;48.872;2.400;2023-06-14T08:05:57;28.80;71.20
69418;DHT22;56610;48.872;2.400;2023-06-14T08:08:23;28.90;72.20
69418;DHT22;56610;48.872;2.400;2023-06-14T08:10:48;29.20;72.80
69418;DHT22;56610;48.872;2.400;2023-06-14T08:13:14;29.30;72.30
69418;DHT22;56610;48.872;2.400;2023-06-14T08:15:40;29.30;72.60
69418;DHT22;56610;48.872;2.400;2023-06-14T08:18:05;29.30;70.90
69418;DHT22;56610;48.872;2.400;2023-06-14T08:20:31;29.40;69.70
69418;DHT22;56610;48.872;2.400;2023-06-14T08:22:57;29.40;70.10
69418;DHT22;56610;48.872;2.400;2023-06-14T08:25:23;29.50;70.50
69418;DHT22;56610;48.872;2.400;2023-06-14T08:27:49;29.40;70.50
69418;DHT22;56610;48.872;2.400;2023-06-14T08:30:16;29.30;70.10
69418;DHT22;56610;48.872;2.400;2023-06-14T08:32:43;29.40;70.20
69418;DHT22;56610;48.872;2.400;2023-06-14T08:35:08;29.50;70.20
69418;DHT22;56610;48.872;2.400;2023-06-14T08:37:41;29.50;69.70
69418;DHT22;56610;48.872;2.400;2023-06-14T08:40:18;29.70;70.20
69418;DHT22;56610;48.872;2.400;2023-06-14T08:42:47;29.70;69.20
69418;DHT22;56610;48.872;2.400;2023-06-14T08:45:13;29.70;68.70
69418;DHT22;56610;48.872;2.400;2023-06-14T08:47:39;29.90;67.00
69418;DHT22;56610;48.872;2.400;2023-06-14T08:50:06;30.00;65.90
69418;DHT22;56610;48.872;2.400;2023-06-14T08:52:34;30.10;66.20
69418;DHT22;56610;48.872;2.400;2023-06-14T08:55:06;30.00;66.70
69418;DHT22;56610;48.872;2.400;2023-06-14T08:57:36;30.00;67.20
69418;DHT22;56610;48.872;2.400;2023-06-14T09:00:04;30.00;66.00
69418;DHT22;56610;48.872;2.400;2023-06-14T09:02:37;30.10;65.70
69418;DHT22;56610;48.872;2.400;2023-06-14T09:05:04;30.30;65.20
69418;DHT22;56610;48.872;2.400;2023-06-14T09:07:29;30.30;65.20
69418;DHT22;56610;48.872;2.400;2023-06-14T09:10:09;30.30;65.30
69418;DHT22;56610;48.872;2.400;2023-06-14T09:12:35;30.20;63.10
69418;DHT22;56610;48.872;2.400;2023-06-14T09:15:02;30.00;63.50
69418;DHT22;56610;48.872;2.400;2023-06-14T09:17:32;29.90;64.60
69418;DHT22;56610;48.872;2.400;2023-06-14T09:19:59;29.90;64.30
69418;DHT22;56610;48.872;2.400;2023-06-14T09:22:25;30.00;64.80
69418;DHT22;56610;48.872;2.400;2023-06-14T09:24:50;30.10;64.00
69418;DHT22;56610;48.872;2.400;2023-06-14T09:27:16;30.00;63.40
69418;DHT22;56610;48.872;2.400;2023-06-14T09:29:41;30.10;63.60
69418;DHT22;56610;48.872;2.400;2023-06-14T09:32:07;30.00;61.20
69418;DHT22;56610;48.872;2.400;2023-06-14T09:34:35;30.00;62.60
69418;DHT22;56610;48.872;2.400;2023-06-14T09:37:01;30.10;63.00
69418;DHT22;56610;48.872;2.400;2023-06-14T09:39:26;30.10;61.30
69418;DHT22;56610;48.872;2.400;2023-06-14T09:41:52;30.10;60.80
69418;DHT22;56610;48.872;2.400;2023-06-14T09:44:18;30.10;60.50
69418;DHT22;56610;48.872;2.400;2023-06-14T09:46:45;30.20;59.30
69418;DHT22;56610;48.872;2.400;2023-06-14T09:49:11;30.10;60.50
69418;DHT22;56610;48.872;2.400;2023-06-14T09:51:43;30.30;60.50
69418;DHT22;56610;48.872;2.400;2023-06-14T09:54:15;30.30;60.30
69418;DHT22;56610;48.872;2.400;2023-06-14T09:56:42;30.30;60.00
69418;DHT22;56610;48.872;2.400;2023-06-14T09:59:09;30.30;59.80
69418;DHT22;56610;48.872;2.400;2023-06-14T10:01:43;30.30;59.70
69418;DHT22;56610;48.872;2.400;2023-06-14T10:04:10;30.40;60.00
69418;DHT22;56610;48.872;2.400;2023-06-14T10:06:38;30.50;60.40
69418;DHT22;56610;48.872;2.400;2023-06-14T10:09:08;30.50;60.00
69418;DHT22;56610;48.872;2.400;2023-06-14T10:11:35;30.60;59.80
69418;DHT22;56610;48.872;2.400;2023-06-14T10:14:02;30.70;59.60
69418;DHT22;56610;48.872;2.400;2023-06-14T10:16:55;30.70;59.60
69418;DHT22;56610;48.872;2.400;2023-06-14T10:19:34;30.80;59.20
69418;DHT22;56610;48.872;2.400;2023-06-14T10:22:22;30.80;58.50
69418;DHT22;56610;48.872;2.400;2023-06-14T10:24:50;30.70;59.60
69418;DHT22;56610;48.872;2.400;2023-06-14T10:27:16;30.70;59.70
69418;DHT22;56610;48.872;2.400;2023-06-14T10:30:04;30.70;59.90
69418;DHT22;56610;48.872;2.400;2023-06-14T10:32:31;30.70;59.80
69418;DHT22;56610;48.872;2.400;2023-06-14T10:35:00;30.70;59.50
69418;DHT22;56610;48.872;2.400;2023-06-14T10:37:26;30.70;58.40
69418;DHT22;56610;48.872;2.400;2023-06-14T10:39:51;30.70;58.80
69418;DHT22;56610;48.872;2.400;2023-06-14T10:42:18;30.60;59.10
69418;DHT22;56610;48.872;2.400;2023-06-14T10:44:52;30.70;59.70
69418;DHT22;56610;48.872;2.400;2023-06-14T10:50:19;30.90;58.40
69418;DHT22;56610;48.872;2.400;2023-06-14T10:52:45;30.90;59.30
69418;DHT22;56610;48.872;2.400;2023-06-14T10:55:15;31.10;59.50
69418;DHT22;56610;48.872;2.400;2023-06-14T10:57:50;31.20;59.40
69418;DHT22;56610;48.872;2.400;2023-06-14T11:00:24;31.40;59.00
69418;DHT22;56610;48.872;2.400;2023-06-14T11:03:33;31.70;59.50
69418;DHT22;56610;48.872;2.400;2023-06-14T11:06:12;32.00;59.00
69418;DHT22;56610;48.872;2.400;2023-06-14T11:11:54;32.60;59.10
69418;DHT22;56610;48.872;2.400;2023-06-14T11:14:20;33.10;57.90
69418;DHT22;56610;48.872;2.400;2023-06-14T11:16:50;33.40;58.20
69418;DHT22;56610;48.872;2.400;2023-06-14T11:19:16;33.50;56.20
69418;DHT22;56610;48.872;2.400;2023-06-14T11:21:43;33.90;57.30
69418;DHT22;56610;48.872;2.400;2023-06-14T11:24:12;34.10;57.40
69418;DHT22;56610;48.872;2.400;2023-06-14T11:26:38;34.30;56.40
69418;DHT22;56610;48.872;2.400;2023-06-14T11:29:04;34.40;55.60
69418;DHT22;56610;48.872;2.400;2023-06-14T11:31:29;34.50;55.70
69418;DHT22;56610;48.872;2.400;2023-06-14T11:33:59;34.70;55.90
69418;DHT22;56610;48.872;2.400;2023-06-14T11:36:33;35.00;55.00
69418;DHT22;56610;48.872;2.400;2023-06-14T11:39:02;35.10;56.00
69418;DHT22;56610;48.872;2.400;2023-06-14T11:41:38;35.20;55.50
69418;DHT22;56610;48.872;2.400;2023-06-14T11:44:04;35.30;53.80
69418;DHT22;56610;48.872;2.400;2023-06-14T11:46:31;35.30;54.50
69418;DHT22;56610;48.872;2.400;2023-06-14T11:48:56;35.30;54.50
69418;DHT22;56610;48.872;2.400;2023-06-14T11:51:22;35.10;54.30
69418;DHT22;56610;48.872;2.400;2023-06-14T11:53:48;35.10;55.10
69418;DHT22;56610;48.872;2.400;2023-06-14T11:56:14;34.90;54.80
69418;DHT22;56610;48.872;2.400;2023-06-14T11:58:39;35.00;55.00
69418;DHT22;56610;48.872;2.400;2023-06-14T12:01:05;34.90;56.00
69418;DHT22;56610;48.872;2.400;2023-06-14T12:03:31;34.60;54.80
69418;DHT22;56610;48.872;2.400;2023-06-14T12:06:06;34.70;56.20
69418;DHT22;56610;48.872;2.400;2023-06-14T12:08:39;34.60;55.60
69418;DHT22;56610;48.872;2.400;2023-06-14T12:11:06;34.40;55.40
69418;DHT22;56610;48.872;2.400;2023-06-14T12:13:34;34.40;56.30
69418;DHT22;56610;48.872;2.400;2023-06-14T12:15:59;34.40;55.90
69418;DHT22;56610;48.872;2.400;2023-06-14T12:18:32;34.40;55.70
69418;DHT22;56610;48.872;2.400;2023-06-14T12:21:00;34.40;55.60
69418;DHT22;56610;48.872;2.400;2023-06-14T12:23:45;34.50;55.70
69418;DHT22;56610;48.872;2.400;2023-06-14T12:26:16;34.40;56.40
69418;DHT22;56610;48.872;2.400;2023-06-14T12:28:42;34.30;56.70
69418;DHT22;56610;48.872;2.400;2023-06-14T12:31:08;34.30;55.80
69418;DHT22;56610;48.872;2.400;2023-06-14T12:33:34;34.30;56.70
69418;DHT22;56610;48.872;2.400;2023-06-14T12:35:59;34.40;57.40
69418;DHT22;56610;48.872;2.400;2023-06-14T12:38:28;34.50;56.80
69418;DHT22;56610;48.872;2.400;2023-06-14T12:40:53;34.60;54.80
69418;DHT22;56610;48.872;2.400;2023-06-14T12:43:19;34.60;57.20
69418;DHT22;56610;48.872;2.400;2023-06-14T12:45:45;34.70;55.70
69418;DHT22;56610;48.872;2.400;2023-06-14T12:48:10;34.70;54.60
69418;DHT22;56610;48.872;2.400;2023-06-14T12:50:36;34.70;55.20
69418;DHT22;56610;48.872;2.400;2023-06-14T12:53:01;34.90;56.70
69418;DHT22;56610;48.872;2.400;2023-06-14T12:55:27;34.90;54.90
69418;DHT22;56610;48.872;2.400;2023-06-14T12:57:53;35.00;54.30
69418;DHT22;56610;48.872;2.400;2023-06-14T13:00:18;35.30;53.80
69418;DHT22;56610;48.872;2.400;2023-06-14T13:02:45;35.40;54.60
69418;DHT22;56610;48.872;2.400;2023-06-14T13:05:11;35.20;54.50
69418;DHT22;56610;48.872;2.400;2023-06-14T13:07:37;35.30;54.80
69418;DHT22;56610;48.872;2.400;2023-06-14T13:10:03;35.30;55.70
69418;DHT22;56610;48.872;2.400;2023-06-14T13:12:28;35.60;54.10
69418;DHT22;56610;48.872;2.400;2023-06-14T13:14:54;36.00;54.70
69418;DHT22;56610;48.872;2.400;2023-06-14T13:17:20;36.30;54.50
69418;DHT22;56610;48.872;2.400;2023-06-14T13:19:45;36.50;53.70
69418;DHT22;56610;48.872;2.400;2023-06-14T13:22:11;36.40;52.90
69418;DHT22;56610;48.872;2.400;2023-06-14T13:24:37;36.50;52.60
69418;DHT22;56610;48.872;2.400;2023-06-14T13:27:02;36.70;52.40
69418;DHT22;56610;48.872;2.400;2023-06-14T13:29:28;36.70;54.10
69418;DHT22;56610;48.872;2.400;2023-06-14T13:31:55;36.80;53.30
69418;DHT22;56610;48.872;2.400;2023-06-14T13:34:21;37.00;53.30
69418;DHT22;56610;48.872;2.400;2023-06-14T13:36:47;37.30;53.00
69418;DHT22;56610;48.872;2.400;2023-06-14T13:39:13;37.50;52.50
69418;DHT22;56610;48.872;2.400;2023-06-14T13:41:38;37.70;53.60
69418;DHT22;56610;48.872;2.400;2023-06-14T13:44:04;37.70;52.30
69418;DHT22;56610;48.872;2.400;2023-06-14T13:46:30;38.00;52.70
69418;DHT22;56610;48.872;2.400;2023-06-14T13:48:56;38.10;51.90
69418;DHT22;56610;48.872;2.400;2023-06-14T13:51:22;38.10;52.40
69418;DHT22;56610;48.872;2.400;2023-06-14T13:53:48;38.10;52.30
69418;DHT22;56610;48.872;2.400;2023-06-14T13:56:15;38.20;53.40
69418;DHT22;56610;48.872;2.400;2023-06-14T13:58:41;38.20;53.70
69418;DHT22;56610;48.872;2.400;2023-06-14T14:01:06;38.30;54.20
69418;DHT22;56610;48.872;2.400;2023-06-14T14:03:32;38.50;52.90
69418;DHT22;56610;48.872;2.400;2023-06-14T14:05:58;38.40;52.40
69418;DHT22;56610;48.872;2.400;2023-06-14T14:08:23;38.10;53.10
69418;DHT22;56610;48.872;2.400;2023-06-14T14:10:50;37.80;52.60
69418;DHT22;56610;48.872;2.400;2023-06-14T14:13:15;37.70;53.10
69418;DHT22;56610;48.872;2.400;2023-06-14T14:15:41;37.50;52.30
69418;DHT22;56610;48.872;2.400;2023-06-14T14:18:07;37.50;53.00
69418;DHT22;56610;48.872;2.400;2023-06-14T14:20:33;37.80;53.20
69418;DHT22;56610;48.872;2.400;2023-06-14T14:22:59;37.90;53.30
69418;DHT22;56610;48.872;2.400;2023-06-14T14:25:25;38.00;52.80
69418;DHT22;56610;48.872;2.400;2023-06-14T14:27:51;37.80;52.50
69418;DHT22;56610;48.872;2.400;2023-06-14T14:30:17;37.70;53.30
69418;DHT22;56610;48.872;2.400;2023-06-14T14:32:44;37.80;53.00
69418;DHT22;56610;48.872;2.400;2023-06-14T14:35:10;37.70;53.00
69418;DHT22;56610;48.872;2.400;2023-06-14T14:37:37;37.70;53.20
69418;DHT22;56610;48.872;2.400;2023-06-14T14:40:03;37.40;53.40
69418;DHT22;56610;48.872;2.400;2023-06-14T14:42:29;37.50;53.20
69418;DHT22;56610;48.872;2.400;2023-06-14T14:44:54;37.90;53.30
69418;DHT22;56610;48.872;2.400;2023-06-14T14:47:20;37.90;52.60
69418;DHT22;56610;48.872;2.400;2023-06-14T14:49:45;37.90;52.10
69418;DHT22;56610;48.872;2.400;2023-06-14T14:52:11;37.70;52.00
69418;DHT22;56610;48.872;2.400;2023-06-14T14:54:38;37.50;52.10
69418;DHT22;56610;48.872;2.400;2023-06-14T14:57:04;37.10;51.60
69418;DHT22;56610;48.872;2.400;2023-06-14T14:59:30;36.90;51.90
69418;DHT22;56610;48.872;2.400;2023-06-14T15:01:56;36.60;50.90
69418;DHT22;56610;48.872;2.400;2023-06-14T15:04:21;36.30;50.90
69418;DHT22;56610;48.872;2.400;2023-06-14T15:06:47;36.50;51.90
69418;DHT22;56610;48.872;2.400;2023-06-14T15:09:12;36.70;51.80
69418;DHT22;56610;48.872;2.400;2023-06-14T15:11:38;36.90;52.70
69418;DHT22;56610;48.872;2.400;2023-06-14T15:14:04;37.00;52.10
69418;DHT22;56610;48.872;2.400;2023-06-14T15:16:29;37.00;52.90
69418;DHT22;56610;48.872;2.400;2023-06-14T15:18:55;37.10;52.60
69418;DHT22;56610;48.872;2.400;2023-06-14T15:21:20;37.40;52.10
69418;DHT22;56610;48.872;2.400;2023-06-14T15:23:47;37.50;50.90
69418;DHT22;56610;48.872;2.400;2023-06-14T15:26:13;37.50;51.20
69418;DHT22;56610;48.872;2.400;2023-06-14T15:28:39;37.40;51.20
69418;DHT22;56610;48.872;2.400;2023-06-14T15:31:05;37.50;51.80
69418;DHT22;56610;48.872;2.400;2023-06-14T15:33:31;37.50;51.90
69418;DHT22;56610;48.872;2.400;2023-06-14T15:35:57;37.30;51.60
69418;DHT22;56610;48.872;2.400;2023-06-14T15:38:22;37.20;52.10
69418;DHT22;56610;48.872;2.400;2023-06-14T15:40:48;37.10;52.50